createdAt,value
2023-09-17T00:02:43.495Z,20.7
2023-09-17T00:08:09.757Z,22.5
2023-09-17T00:12:32.180Z,20.4
2023-09-17T00:17:38.600Z,32.0
2023-09-17T00:22:45.080Z,21.1
2023-09-17T00:27:51.340Z,18.3
2023-09-17T00:33:11.866Z,31.5
2023-09-17T00:38:28.273Z,18.8
2023-09-17T00:43:10.681Z,26.7
2023-09-17T00:48:40.983Z,24.4
2023-09-17T00:54:15.508Z,21.8
2023-09-17T00:58:29.786Z,23.0
2023-09-17T01:04:00.253Z,22.8
2023-09-17T01:08:42.504Z,22.5
2023-09-17T01:14:08.976Z,23.7
2023-09-17T01:18:55.347Z,35.0
2023-09-17T01:24:21.691Z,23.3
2023-09-17T01:29:52.187Z,24.4
2023-09-17T01:34:14.567Z,21.6
2023-09-17T01:39:25.010Z,24.2
2023-09-17T01:44:50.388Z,21.7
2023-09-17T01:49:47.900Z,21.7
2023-09-17T01:55:24.267Z,20.4
2023-09-17T02:00:10.533Z,20.7
2023-09-17T02:05:16.961Z,23.8
2023-09-17T02:09:59.306Z,20.8
2023-09-17T02:15:05.638Z,30.6
2023-09-17T02:20:12.027Z,44.8
2023-09-17T02:25:08.418Z,22.4
2023-09-17T02:30:14.770Z,26.1
2023-09-17T02:35:31.193Z,30.9
2023-09-17T02:40:37.656Z,41.8
2023-09-17T02:45:43.939Z,27.7
2023-09-17T02:51:14.398Z,21.6
2023-09-17T02:56:34.817Z,30.2
2023-09-17T03:01:23.144Z,23.4
2023-09-17T03:06:48.543Z,27.3
2023-09-17T03:12:17.087Z,25.0
2023-09-17T03:16:42.397Z,25.2
2023-09-17T03:21:28.848Z,24.6
2023-09-17T03:26:35.233Z,24.0
2023-09-17T03:31:41.670Z,25.1
2023-09-17T03:36:47.996Z,20.6
2023-09-17T03:41:54.377Z,23.2
2023-09-17T03:47:20.875Z,25.4
2023-09-17T03:52:07.157Z,23.5
2023-09-17T03:57:37.585Z,22.9
2023-09-17T04:02:20.017Z,22.7
2023-09-17T04:08:04.447Z,23.3
2023-09-17T04:12:52.867Z,45.3
2023-09-17T04:17:39.253Z,25.0
2023-09-17T04:22:45.590Z,28.6
2023-09-17T04:28:12.028Z,22.8
2023-09-17T04:32:58.381Z,27.8
2023-09-17T04:38:04.789Z,28.3
2023-09-17T04:43:11.167Z,30.0
2023-09-17T04:48:07.596Z,28.9
2023-09-17T04:53:23.917Z,29.2
2023-09-17T04:58:30.317Z,33.6
2023-09-17T05:03:36.789Z,29.5
2023-09-17T05:09:24.147Z,34.3
2023-09-17T05:13:48.606Z,36.7
2023-09-17T05:18:55.898Z,32.3
2023-09-17T05:24:02.242Z,28.0
2023-09-17T05:29:08.818Z,26.9
2023-09-17T05:34:15.142Z,33.5
2023-09-17T05:39:41.545Z,32.3
2023-09-17T05:44:27.985Z,37.5
2023-09-17T05:49:34.418Z,34.4
2023-09-17T05:55:24.816Z,33.3
2023-09-17T06:00:11.146Z,47.4
2023-09-17T06:05:17.571Z,40.6
2023-09-17T06:09:59.908Z,36.0
2023-09-17T06:15:30.448Z,31.9
2023-09-17T06:20:12.730Z,41.8
2023-09-17T06:25:19.150Z,33.2
2023-09-17T06:30:25.558Z,41.0
2023-09-17T06:35:31.893Z,33.4
2023-09-17T06:40:38.444Z,31.8
2023-09-17T06:45:44.701Z,43.5
2023-09-17T06:50:51.083Z,34.7
2023-09-17T06:56:35.665Z,39.4
2023-09-17T07:01:03.967Z,38.5
2023-09-17T07:06:10.290Z,36.6
2023-09-17T07:12:19.961Z,44.2
2023-09-17T07:16:22.331Z,36.1
2023-09-17T07:21:53.600Z,39.7
2023-09-17T07:26:36.018Z,36.3
2023-09-17T07:31:42.465Z,41.6
2023-09-17T07:36:48.795Z,42.4
2023-09-17T07:41:55.155Z,33.5
2023-09-17T07:47:01.658Z,34.5
2023-09-17T07:52:32.163Z,43.4
2023-09-17T08:01:37.053Z,42.0
2023-09-17T08:02:20.948Z,34.3
2023-09-17T08:07:27.258Z,35.8
2023-09-17T08:12:33.572Z,39.4
2023-09-17T08:17:39.998Z,36.8
2023-09-17T08:23:10.359Z,40.8
2023-09-17T08:27:52.788Z,34.9
2023-09-17T08:32:59.515Z,37.6
2023-09-17T08:38:25.784Z,38.0
2023-09-17T08:43:52.427Z,28.2
2023-09-17T08:48:18.549Z,42.2
2023-09-17T08:53:44.898Z,40.2
2023-09-17T08:58:31.275Z,33.9
2023-09-17T09:03:57.815Z,30.0
2023-09-17T09:08:43.982Z,30.6
2023-09-17T09:14:48.578Z,30.1
2023-09-17T09:18:57.035Z,36.0
2023-09-17T09:24:03.540Z,31.3
2023-09-17T09:29:10.051Z,26.1
2023-09-17T09:34:16.216Z,26.3
2023-09-17T09:39:42.683Z,24.3
2023-09-17T09:44:29.055Z,27.2
2023-09-17T09:49:35.437Z,24.7
2023-09-17T09:55:01.888Z,25.4
2023-09-17T10:00:42.336Z,21.9
2023-09-17T10:04:54.656Z,24.2
2023-09-17T10:10:29.129Z,33.2
2023-09-17T10:15:31.605Z,22.7
2023-09-17T10:20:57.947Z,18.7
2023-09-17T10:25:40.339Z,23.0
2023-09-17T10:30:46.682Z,15.4
2023-09-17T10:35:32.970Z,15.7
2023-09-17T10:41:43.071Z,17.2
2023-09-17T10:50:54.223Z,14.6
2023-09-17T10:56:01.613Z,14.9
2023-09-17T11:01:32.351Z,17.0
2023-09-17T11:06:14.627Z,15.1
2023-09-17T11:12:01.105Z,15.8
2023-09-17T11:16:51.653Z,17.6
2023-09-17T11:21:53.919Z,17.8
2023-09-17T11:26:40.240Z,16.5
2023-09-17T11:32:06.893Z,19.1
2023-09-17T11:36:53.245Z,20.3
2023-09-17T11:41:59.621Z,15.2
2023-09-17T11:47:06.071Z,33.0
2023-09-17T11:52:12.481Z,15.1
2023-09-17T11:57:18.762Z,16.1
2023-09-17T12:02:25.441Z,22.4
2023-09-17T12:07:38.982Z,15.1
2023-09-17T12:12:58.157Z,13.9
2023-09-17T12:18:08.580Z,15.6
2023-09-17T12:23:30.259Z,13.6
2023-09-17T12:28:20.739Z,14.4
2023-09-17T12:33:04.329Z,17.4
2023-09-17T12:38:30.706Z,15.3
2023-09-17T12:43:17.085Z,15.4
2023-09-17T12:48:23.442Z,16.8
2023-09-17T12:53:29.849Z,14.8
2023-09-17T12:58:36.284Z,22.3
2023-09-17T13:03:42.719Z,14.8
2023-09-17T13:08:49.461Z,16.0
2023-09-17T13:14:15.943Z,16.2
2023-09-17T13:24:08.322Z,15.8
2023-09-17T13:29:15.749Z,16.7
2023-09-17T13:34:22.139Z,14.3
2023-09-17T13:39:28.471Z,14.9
2023-09-17T13:44:34.851Z,14.0
2023-09-17T13:49:41.352Z,15.6
2023-09-17T13:54:47.619Z,15.0
2023-09-17T13:59:54.250Z,14.4
2023-09-17T14:05:24.832Z,12.9
2023-09-17T14:10:06.998Z,14.8
2023-09-17T14:15:57.523Z,13.9
2023-09-17T14:20:39.972Z,13.5
2023-09-17T14:26:10.680Z,15.3
2023-09-17T14:30:32.714Z,15.0
2023-09-17T14:35:29.084Z,15.9
2023-09-17T14:41:05.566Z,14.4
2023-09-17T14:46:17.078Z,18.2
2023-09-17T14:52:32.561Z,17.1
2023-09-17T14:56:08.651Z,12.0
2023-09-17T15:02:00.641Z,13.6
2023-09-17T15:06:21.986Z,13.2
2023-09-17T15:11:53.272Z,13.4
2023-09-17T15:17:19.755Z,13.0
2023-09-17T15:21:41.989Z,15.1
2023-09-17T15:27:12.465Z,15.1
2023-09-17T15:32:14.905Z,16.3
2023-09-17T15:37:26.508Z,18.2
2023-09-17T15:42:08.945Z,13.4
2023-09-17T15:47:39.544Z,14.0
2023-09-17T15:53:36.454Z,13.7
2023-09-17T15:57:28.677Z,14.1
2023-09-17T16:02:55.326Z,18.1
2023-09-17T16:08:05.717Z,20.6
2023-09-17T16:13:08.187Z,15.8
2023-09-17T16:18:14.709Z,16.5
2023-09-17T16:23:45.061Z,14.6
2023-09-17T16:29:08.547Z,26.9
2023-09-17T16:33:13.157Z,13.6
2023-09-17T16:38:20.441Z,12.7
2023-09-17T16:44:28.927Z,16.7
2023-09-17T16:48:53.202Z,16.4
2023-09-17T16:53:39.709Z,15.8
2023-09-17T16:59:07.225Z,13.4
2023-09-17T17:03:54.089Z,14.1
2023-09-17T17:09:20.254Z,14.2
2023-09-17T17:14:06.709Z,15.8
2023-09-17T17:19:13.076Z,15.4
2023-09-17T17:24:58.548Z,16.7
2023-09-17T17:29:24.824Z,16.9
2023-09-17T17:34:56.389Z,20.0
2023-09-17T17:39:38.587Z,17.5
2023-09-17T17:44:46.026Z,16.2
2023-09-17T17:51:05.062Z,19.4
2023-09-17T17:55:39.392Z,17.5
2023-09-17T18:00:29.814Z,14.9
2023-09-17T18:05:12.724Z,15.0
2023-09-17T18:11:42.996Z,17.0
2023-09-17T18:20:58.896Z,17.9
2023-09-17T18:26:20.342Z,18.1
2023-09-17T18:31:31.309Z,16.5
2023-09-17T18:41:31.011Z,16.1
2023-09-17T18:47:15.381Z,23.0
2023-09-17T18:51:21.521Z,19.9
2023-09-17T18:57:04.684Z,18.1
2023-09-17T19:01:34.005Z,18.9
2023-09-17T19:06:43.970Z,21.8
2023-09-17T19:12:58.666Z,17.4
2023-09-17T19:16:56.898Z,16.8
2023-09-17T19:22:03.282Z,16.1
2023-09-17T19:27:09.718Z,15.5
2023-09-17T19:32:57.436Z,21.0
2023-09-17T19:37:41.735Z,20.8
2023-09-17T19:42:32.904Z,20.4
2023-09-17T19:48:04.242Z,16.6
2023-09-17T19:53:06.565Z,21.3
2023-09-17T19:58:16.881Z,23.7
2023-09-17T20:02:59.302Z,16.9
2023-09-17T20:08:05.660Z,20.2
2023-09-17T20:13:56.117Z,17.8
2023-09-17T20:18:19.091Z,21.7
2023-09-17T20:23:25.553Z,17.8
2023-09-17T20:28:56.119Z,24.3
2023-09-17T20:33:38.278Z,23.1
2023-09-17T20:39:06.818Z,19.1
2023-09-17T20:43:51.071Z,25.8
2023-09-17T20:48:59.871Z,18.7
2023-09-17T20:54:23.882Z,20.7
2023-09-17T20:59:10.191Z,19.8
2023-09-17T21:04:36.664Z,21.9
2023-09-17T21:09:43.088Z,18.4
2023-09-17T21:14:43.432Z,19.4
2023-09-17T21:19:56.055Z,24.2
2023-09-17T21:25:20.463Z,22.6
2023-09-17T21:30:27.928Z,21.7
2023-09-17T21:34:54.280Z,19.9
2023-09-17T21:40:21.678Z,20.1
2023-09-17T21:45:08.177Z,19.5
2023-09-17T21:50:14.519Z,20.5
2023-09-17T21:55:20.994Z,21.3
2023-09-17T22:00:27.328Z,17.1
2023-09-17T22:05:33.669Z,21.0
2023-09-17T22:10:40.034Z,20.5
2023-09-17T22:15:46.442Z,24.6
2023-09-17T22:22:06.935Z,21.2
2023-09-17T22:25:59.200Z,21.7
2023-09-17T22:31:43.619Z,19.7
2023-09-17T22:36:11.935Z,24.5
2023-09-17T22:41:42.298Z,24.3
2023-09-17T22:46:48.817Z,18.1
2023-09-17T22:51:55.175Z,19.5
2023-09-17T22:56:37.579Z,22.6
2023-09-17T23:01:44.010Z,20.2
2023-09-17T23:07:14.444Z,22.4
2023-09-17T23:12:20.850Z,18.8
2023-09-17T23:17:27.398Z,21.4
2023-09-17T23:22:09.654Z,28.3
2023-09-17T23:27:50.150Z,27.9
2023-09-17T23:33:54.624Z,21.5
2023-09-17T23:38:02.935Z,19.7
2023-09-17T23:43:10.294Z,19.6
2023-09-17T23:48:06.703Z,20.0
2023-09-17T23:53:23.052Z,29.3
2023-09-17T23:59:25.653Z,25.2
